sensor_id;sensor_type;location;lat;lon;timestamp;temperature;humidity
10030;DHT22;5055;52.054;8.524;2023-03-03T00:00:30;1.70;97.00
10030;DHT22;5055;52.054;8.524;2023-03-03T00:03:01;1.70;97.00
10030;DHT22;5055;52.054;8.524;2023-03-03T00:05:33;1.60;97.00
10030;DHT22;5055;52.054;8.524;2023-03-03T00:08:02;1.60;97.00
10030;DHT22;5055;52.054;8.524;2023-03-03T00:10:31;1.60;97.00
10030;DHT22;5055;52.054;8.524;2023-03-03T00:13:00;1.60;97.00
10030;DHT22;5055;52.054;8.524;2023-03-03T00:15:29;1.60;97.00
10030;DHT22;5055;52.054;8.524;2023-03-03T00:17:58;1.70;97.00
10030;DHT22;5055;52.054;8.524;2023-03-03T00:20:37;1.60;97.00
10030;DHT22;5055;52.054;8.524;2023-03-03T00:25:58;1.70;97.00
10030;DHT22;5055;52.054;8.524;2023-03-03T00:28:28;1.60;97.00
10030;DHT22;5055;52.054;8.524;2023-03-03T00:30:58;1.60;97.00
10030;DHT22;5055;52.054;8.524;2023-03-03T00:33:30;1.70;97.00
10030;DHT22;5055;52.054;8.524;2023-03-03T00:36:20;1.70;97.00
10030;DHT22;5055;52.054;8.524;2023-03-03T00:38:49;1.70;97.00
10030;DHT22;5055;52.054;8.524;2023-03-03T00:41:21;1.70;97.00
10030;DHT22;5055;52.054;8.524;2023-03-03T00:43:51;1.70;97.00
10030;DHT22;5055;52.054;8.524;2023-03-03T00:46:23;1.70;97.00
10030;DHT22;5055;52.054;8.524;2023-03-03T00:48:51;1.70;97.00
10030;DHT22;5055;52.054;8.524;2023-03-03T00:51:26;1.70;97.00
10030;DHT22;5055;52.054;8.524;2023-03-03T00:53:55;1.70;97.00
10030;DHT22;5055;52.054;8.524;2023-03-03T00:56:24;1.70;97.00
10030;DHT22;5055;52.054;8.524;2023-03-03T00:58:53;1.70;97.00
10030;DHT22;5055;52.054;8.524;2023-03-03T01:01:21;1.70;97.00
10030;DHT22;5055;52.054;8.524;2023-03-03T01:03:51;1.70;97.00
10030;DHT22;5055;52.054;8.524;2023-03-03T01:06:19;1.70;97.00
10030;DHT22;5055;52.054;8.524;2023-03-03T01:08:49;1.70;97.00
10030;DHT22;5055;52.054;8.524;2023-03-03T01:11:21;1.70;97.00
10030;DHT22;5055;52.054;8.524;2023-03-03T01:13:51;1.70;97.00
10030;DHT22;5055;52.054;8.524;2023-03-03T01:16:20;1.70;97.00
10030;DHT22;5055;52.054;8.524;2023-03-03T01:18:49;1.70;97.00
10030;DHT22;5055;52.054;8.524;2023-03-03T01:21:17;1.70;97.00
10030;DHT22;5055;52.054;8.524;2023-03-03T01:23:46;1.70;97.00
10030;DHT22;5055;52.054;8.524;2023-03-03T01:26:16;1.70;97.00
10030;DHT22;5055;52.054;8.524;2023-03-03T01:28:44;1.70;97.00
10030;DHT22;5055;52.054;8.524;2023-03-03T01:31:13;1.70;97.00
10030;DHT22;5055;52.054;8.524;2023-03-03T01:33:41;1.70;97.00
10030;DHT22;5055;52.054;8.524;2023-03-03T01:36:10;1.60;97.00
10030;DHT22;5055;52.054;8.524;2023-03-03T01:38:38;1.60;97.00
10030;DHT22;5055;52.054;8.524;2023-03-03T01:41:07;1.60;97.00
10030;DHT22;5055;52.054;8.524;2023-03-03T01:43:43;1.60;97.00
10030;DHT22;5055;52.054;8.524;2023-03-03T01:46:35;1.60;97.00
10030;DHT22;5055;52.054;8.524;2023-03-03T01:49:11;1.60;97.00
10030;DHT22;5055;52.054;8.524;2023-03-03T01:51:46;1.60;97.00
10030;DHT22;5055;52.054;8.524;2023-03-03T01:54:19;1.60;97.00
10030;DHT22;5055;52.054;8.524;2023-03-03T01:56:51;1.60;97.00
10030;DHT22;5055;52.054;8.524;2023-03-03T01:59:23;1.60;97.00
10030;DHT22;5055;52.054;8.524;2023-03-03T02:01:53;1.60;97.00
10030;DHT22;5055;52.054;8.524;2023-03-03T02:04:22;1.60;97.00
10030;DHT22;5055;52.054;8.524;2023-03-03T02:06:55;1.60;97.00
10030;DHT22;5055;52.054;8.524;2023-03-03T02:09:31;1.60;97.00
10030;DHT22;5055;52.054;8.524;2023-03-03T02:12:04;1.60;97.00
10030;DHT22;5055;52.054;8.524;2023-03-03T02:14:35;1.60;97.00
10030;DHT22;5055;52.054;8.524;2023-03-03T02:17:04;1.60;97.00
10030;DHT22;5055;52.054;8.524;2023-03-03T02:19:37;1.60;97.00
10030;DHT22;5055;52.054;8.524;2023-03-03T02:22:07;1.50;97.00
10030;DHT22;5055;52.054;8.524;2023-03-03T02:24:40;1.50;97.00
10030;DHT22;5055;52.054;8.524;2023-03-03T02:27:11;1.50;97.00
10030;DHT22;5055;52.054;8.524;2023-03-03T02:29:40;1.50;97.00
10030;DHT22;5055;52.054;8.524;2023-03-03T02:32:08;1.50;97.00
10030;DHT22;5055;52.054;8.524;2023-03-03T02:34:48;1.50;97.00
10030;DHT22;5055;52.054;8.524;2023-03-03T02:37:18;1.50;97.00
10030;DHT22;5055;52.054;8.524;2023-03-03T02:39:47;1.50;97.00
10030;DHT22;5055;52.054;8.524;2023-03-03T02:42:19;1.40;97.00
10030;DHT22;5055;52.054;8.524;2023-03-03T02:44:48;1.40;97.00
10030;DHT22;5055;52.054;8.524;2023-03-03T02:47:17;1.40;97.00
10030;DHT22;5055;52.054;8.524;2023-03-03T02:49:45;1.40;97.00
10030;DHT22;5055;52.054;8.524;2023-03-03T02:52:14;1.40;97.00
10030;DHT22;5055;52.054;8.524;2023-03-03T02:54:44;1.40;97.00
10030;DHT22;5055;52.054;8.524;2023-03-03T02:57:13;1.30;97.00
10030;DHT22;5055;52.054;8.524;2023-03-03T02:59:43;1.30;97.00
10030;DHT22;5055;52.054;8.524;2023-03-03T03:02:11;1.30;97.00
10030;DHT22;5055;52.054;8.524;2023-03-03T03:04:39;1.30;97.00
10030;DHT22;5055;52.054;8.524;2023-03-03T03:07:08;1.20;97.00
10030;DHT22;5055;52.054;8.524;2023-03-03T03:09:37;1.20;97.00
10030;DHT22;5055;52.054;8.524;2023-03-03T03:12:06;1.20;97.00
10030;DHT22;5055;52.054;8.524;2023-03-03T03:14:34;1.20;97.00
10030;DHT22;5055;52.054;8.524;2023-03-03T03:17:07;1.20;97.00
10030;DHT22;5055;52.054;8.524;2023-03-03T03:19:37;1.20;97.00
10030;DHT22;5055;52.054;8.524;2023-03-03T03:22:06;1.20;97.00
10030;DHT22;5055;52.054;8.524;2023-03-03T03:24:34;1.20;97.00
10030;DHT22;5055;52.054;8.524;2023-03-03T03:27:02;1.20;97.00
10030;DHT22;5055;52.054;8.524;2023-03-03T03:29:34;1.20;97.00
10030;DHT22;5055;52.054;8.524;2023-03-03T03:32:02;1.10;97.00
10030;DHT22;5055;52.054;8.524;2023-03-03T03:34:32;1.10;97.00
10030;DHT22;5055;52.054;8.524;2023-03-03T03:37:01;1.10;97.00
10030;DHT22;5055;52.054;8.524;2023-03-03T03:39:29;1.10;97.00
10030;DHT22;5055;52.054;8.524;2023-03-03T03:41:58;1.10;97.00
10030;DHT22;5055;52.054;8.524;2023-03-03T03:44:26;1.20;97.00
10030;DHT22;5055;52.054;8.524;2023-03-03T03:46:55;1.10;97.00
10030;DHT22;5055;52.054;8.524;2023-03-03T03:49:23;1.10;97.00
10030;DHT22;5055;52.054;8.524;2023-03-03T03:51:53;1.10;97.00
10030;DHT22;5055;52.054;8.524;2023-03-03T03:54:21;1.10;97.00
10030;DHT22;5055;52.054;8.524;2023-03-03T03:56:50;1.10;97.00
10030;DHT22;5055;52.054;8.524;2023-03-03T03:59:20;1.10;97.00
10030;DHT22;5055;52.054;8.524;2023-03-03T04:01:48;1.10;97.00
10030;DHT22;5055;52.054;8.524;2023-03-03T04:04:17;1.10;97.00
10030;DHT22;5055;52.054;8.524;2023-03-03T04:06:45;1.10;97.00
10030;DHT22;5055;52.054;8.524;2023-03-03T04:09:15;1.10;97.00
10030;DHT22;5055;52.054;8.524;2023-03-03T04:11:43;1.10;97.00
10030;DHT22;5055;52.054;8.524;2023-03-03T04:14:12;1.10;97.00
10030;DHT22;5055;52.054;8.524;2023-03-03T04:16:43;1.00;97.00
10030;DHT22;5055;52.054;8.524;2023-03-03T04:19:17;1.00;97.00
10030;DHT22;5055;52.054;8.524;2023-03-03T04:21:46;1.00;97.00
10030;DHT22;5055;52.054;8.524;2023-03-03T04:24:16;1.00;97.00
10030;DHT22;5055;52.054;8.524;2023-03-03T04:26:45;1.00;97.00
10030;DHT22;5055;52.054;8.524;2023-03-03T04:29:13;0.90;97.00
10030;DHT22;5055;52.054;8.524;2023-03-03T04:31:41;0.90;97.00
10030;DHT22;5055;52.054;8.524;2023-03-03T04:34:10;0.90;97.00
10030;DHT22;5055;52.054;8.524;2023-03-03T04:36:38;0.90;97.00
10030;DHT22;5055;52.054;8.524;2023-03-03T04:39:07;0.90;97.00
10030;DHT22;5055;52.054;8.524;2023-03-03T04:41:36;0.90;97.00
10030;DHT22;5055;52.054;8.524;2023-03-03T04:44:05;1.00;97.00
10030;DHT22;5055;52.054;8.524;2023-03-03T04:46:33;1.00;97.00
10030;DHT22;5055;52.054;8.524;2023-03-03T04:49:02;1.00;97.00
10030;DHT22;5055;52.054;8.524;2023-03-03T04:51:35;1.00;97.00
10030;DHT22;5055;52.054;8.524;2023-03-03T04:54:04;1.00;97.00
10030;DHT22;5055;52.054;8.524;2023-03-03T04:56:33;1.00;97.00
10030;DHT22;5055;52.054;8.524;2023-03-03T04:59:03;1.00;97.00
10030;DHT22;5055;52.054;8.524;2023-03-03T05:01:31;1.00;97.00
10030;DHT22;5055;52.054;8.524;2023-03-03T05:04:00;1.00;97.00
10030;DHT22;5055;52.054;8.524;2023-03-03T05:06:28;1.00;97.00
10030;DHT22;5055;52.054;8.524;2023-03-03T05:09:00;0.90;97.00
10030;DHT22;5055;52.054;8.524;2023-03-03T05:11:28;0.90;97.00
10030;DHT22;5055;52.054;8.524;2023-03-03T05:13:58;0.90;97.00
10030;DHT22;5055;52.054;8.524;2023-03-03T05:16:28;0.90;97.00
10030;DHT22;5055;52.054;8.524;2023-03-03T05:18:57;0.90;97.00
10030;DHT22;5055;52.054;8.524;2023-03-03T05:21:25;0.80;97.00
10030;DHT22;5055;52.054;8.524;2023-03-03T05:23:54;0.90;97.00
10030;DHT22;5055;52.054;8.524;2023-03-03T05:26:22;0.90;97.00
10030;DHT22;5055;52.054;8.524;2023-03-03T05:28:51;0.80;97.00
10030;DHT22;5055;52.054;8.524;2023-03-03T05:31:19;0.80;97.00
10030;DHT22;5055;52.054;8.524;2023-03-03T05:33:49;0.80;97.00
10030;DHT22;5055;52.054;8.524;2023-03-03T05:36:17;0.80;97.00
10030;DHT22;5055;52.054;8.524;2023-03-03T05:38:46;0.80;97.00
10030;DHT22;5055;52.054;8.524;2023-03-03T05:41:15;0.80;97.00
10030;DHT22;5055;52.054;8.524;2023-03-03T05:43:43;0.80;97.00
10030;DHT22;5055;52.054;8.524;2023-03-03T05:46:12;0.80;97.00
10030;DHT22;5055;52.054;8.524;2023-03-03T05:48:40;0.70;97.00
10030;DHT22;5055;52.054;8.524;2023-03-03T05:51:10;0.70;97.00
10030;DHT22;5055;52.054;8.524;2023-03-03T05:53:39;0.70;97.00
10030;DHT22;5055;52.054;8.524;2023-03-03T05:56:07;0.70;97.00
10030;DHT22;5055;52.054;8.524;2023-03-03T05:58:35;0.70;97.00
10030;DHT22;5055;52.054;8.524;2023-03-03T06:01:04;0.60;97.00
10030;DHT22;5055;52.054;8.524;2023-03-03T06:03:32;0.60;97.00
10030;DHT22;5055;52.054;8.524;2023-03-03T06:06:01;0.60;97.00
10030;DHT22;5055;52.054;8.524;2023-03-03T06:08:31;0.60;97.00
10030;DHT22;5055;52.054;8.524;2023-03-03T06:10:59;0.60;97.00
10030;DHT22;5055;52.054;8.524;2023-03-03T06:13:28;0.60;97.00
10030;DHT22;5055;52.054;8.524;2023-03-03T06:15:56;0.50;97.00
10030;DHT22;5055;52.054;8.524;2023-03-03T06:18:25;0.50;97.00
10030;DHT22;5055;52.054;8.524;2023-03-03T06:20:54;0.50;97.00
10030;DHT22;5055;52.054;8.524;2023-03-03T06:23:22;0.50;97.00
10030;DHT22;5055;52.054;8.524;2023-03-03T06:25:52;0.50;97.00
10030;DHT22;5055;52.054;8.524;2023-03-03T06:28:20;0.50;97.00
10030;DHT22;5055;52.054;8.524;2023-03-03T06:30:52;0.50;97.00
10030;DHT22;5055;52.054;8.524;2023-03-03T06:33:20;0.50;97.00
10030;DHT22;5055;52.054;8.524;2023-03-03T06:35:49;0.50;97.00
10030;DHT22;5055;52.054;8.524;2023-03-03T06:38:18;0.60;97.00
10030;DHT22;5055;52.054;8.524;2023-03-03T06:40:47;0.60;97.00
10030;DHT22;5055;52.054;8.524;2023-03-03T06:43:17;0.60;97.00
10030;DHT22;5055;52.054;8.524;2023-03-03T06:45:45;0.60;97.00
10030;DHT22;5055;52.054;8.524;2023-03-03T06:48:14;0.60;97.00
10030;DHT22;5055;52.054;8.524;2023-03-03T06:50:42;0.60;97.00
10030;DHT22;5055;52.054;8.524;2023-03-03T06:53:12;0.60;97.00
10030;DHT22;5055;52.054;8.524;2023-03-03T06:55:41;0.60;97.00
10030;DHT22;5055;52.054;8.524;2023-03-03T06:58:13;0.60;97.00
10030;DHT22;5055;52.054;8.524;2023-03-03T07:00:44;0.70;97.00
10030;DHT22;5055;52.054;8.524;2023-03-03T07:03:14;0.70;97.00
10030;DHT22;5055;52.054;8.524;2023-03-03T07:05:44;0.70;97.00
10030;DHT22;5055;52.054;8.524;2023-03-03T07:08:14;0.70;97.00
10030;DHT22;5055;52.054;8.524;2023-03-03T07:10:44;0.70;97.00
10030;DHT22;5055;52.054;8.524;2023-03-03T07:13:18;0.70;97.00
10030;DHT22;5055;52.054;8.524;2023-03-03T07:15:51;0.70;97.00
10030;DHT22;5055;52.054;8.524;2023-03-03T07:18:33;0.70;97.00
10030;DHT22;5055;52.054;8.524;2023-03-03T07:21:12;0.70;97.00
10030;DHT22;5055;52.054;8.524;2023-03-03T07:23:43;0.70;97.00
10030;DHT22;5055;52.054;8.524;2023-03-03T07:26:14;0.80;97.00
10030;DHT22;5055;52.054;8.524;2023-03-03T07:28:44;0.80;97.00
10030;DHT22;5055;52.054;8.524;2023-03-03T07:31:33;0.80;97.00
10030;DHT22;5055;52.054;8.524;2023-03-03T07:34:13;0.80;97.00
10030;DHT22;5055;52.054;8.524;2023-03-03T07:36:43;0.90;97.00
10030;DHT22;5055;52.054;8.524;2023-03-03T07:39:24;0.90;97.00
10030;DHT22;5055;52.054;8.524;2023-03-03T07:42:01;1.00;97.00
10030;DHT22;5055;52.054;8.524;2023-03-03T07:44:37;0.90;97.00
10030;DHT22;5055;52.054;8.524;2023-03-03T07:47:19;0.90;97.00
10030;DHT22;5055;52.054;8.524;2023-03-03T07:49:48;0.90;97.00
10030;DHT22;5055;52.054;8.524;2023-03-03T07:52:26;1.00;97.00
10030;DHT22;5055;52.054;8.524;2023-03-03T07:54:56;1.00;97.00
10030;DHT22;5055;52.054;8.524;2023-03-03T07:57:27;1.00;97.00
10030;DHT22;5055;52.054;8.524;2023-03-03T08:00:01;1.10;97.00
10030;DHT22;5055;52.054;8.524;2023-03-03T08:02:43;1.10;97.00
10030;DHT22;5055;52.054;8.524;2023-03-03T08:05:33;1.10;97.00
10030;DHT22;5055;52.054;8.524;2023-03-03T08:08:18;1.20;97.00
10030;DHT22;5055;52.054;8.524;2023-03-03T08:10:53;1.20;97.00
10030;DHT22;5055;52.054;8.524;2023-03-03T08:13:23;1.20;97.00
10030;DHT22;5055;52.054;8.524;2023-03-03T08:15:55;1.20;97.00
10030;DHT22;5055;52.054;8.524;2023-03-03T08:18:33;1.20;97.00
10030;DHT22;5055;52.054;8.524;2023-03-03T08:21:05;1.20;97.00
10030;DHT22;5055;52.054;8.524;2023-03-03T08:23:36;1.30;97.00
10030;DHT22;5055;52.054;8.524;2023-03-03T08:26:04;1.30;97.00
10030;DHT22;5055;52.054;8.524;2023-03-03T08:28:32;1.40;97.00
10030;DHT22;5055;52.054;8.524;2023-03-03T08:31:04;1.40;97.00
10030;DHT22;5055;52.054;8.524;2023-03-03T08:33:49;1.40;97.00
10030;DHT22;5055;52.054;8.524;2023-03-03T08:36:18;1.50;97.00
10030;DHT22;5055;52.054;8.524;2023-03-03T08:38:46;1.50;97.00
10030;DHT22;5055;52.054;8.524;2023-03-03T08:41:15;1.50;97.00
10030;DHT22;5055;52.054;8.524;2023-03-03T08:43:43;1.50;97.00
10030;DHT22;5055;52.054;8.524;2023-03-03T08:46:12;1.50;97.00
10030;DHT22;5055;52.054;8.524;2023-03-03T08:48:40;1.50;97.00
10030;DHT22;5055;52.054;8.524;2023-03-03T08:51:11;1.50;97.00
10030;DHT22;5055;52.054;8.524;2023-03-03T08:53:39;1.60;97.00
10030;DHT22;5055;52.054;8.524;2023-03-03T08:56:07;1.60;97.00
10030;DHT22;5055;52.054;8.524;2023-03-03T08:58:36;1.70;97.00
10030;DHT22;5055;52.054;8.524;2023-03-03T09:01:10;1.70;97.00
10030;DHT22;5055;52.054;8.524;2023-03-03T09:03:39;1.70;97.00
10030;DHT22;5055;52.054;8.524;2023-03-03T09:06:07;1.80;97.00
10030;DHT22;5055;52.054;8.524;2023-03-03T09:08:37;1.90;97.00
10030;DHT22;5055;52.054;8.524;2023-03-03T09:11:09;2.00;97.00
10030;DHT22;5055;52.054;8.524;2023-03-03T09:13:39;2.00;97.00
10030;DHT22;5055;52.054;8.524;2023-03-03T09:16:12;2.00;97.00
10030;DHT22;5055;52.054;8.524;2023-03-03T09:18:41;2.10;97.00
10030;DHT22;5055;52.054;8.524;2023-03-03T09:21:22;2.20;97.00
10030;DHT22;5055;52.054;8.524;2023-03-03T09:23:55;2.20;97.00
10030;DHT22;5055;52.054;8.524;2023-03-03T09:26:29;2.20;97.00
10030;DHT22;5055;52.054;8.524;2023-03-03T09:29:06;2.20;97.00
10030;DHT22;5055;52.054;8.524;2023-03-03T09:31:39;2.10;97.00
10030;DHT22;5055;52.054;8.524;2023-03-03T09:34:18;2.10;97.00
10030;DHT22;5055;52.054;8.524;2023-03-03T09:36:48;2.00;97.00
10030;DHT22;5055;52.054;8.524;2023-03-03T09:39:20;2.00;97.00
10030;DHT22;5055;52.054;8.524;2023-03-03T09:45:09;2.10;97.00
10030;DHT22;5055;52.054;8.524;2023-03-03T09:47:56;2.20;97.00
10030;DHT22;5055;52.054;8.524;2023-03-03T09:50:34;2.20;97.00
10030;DHT22;5055;52.054;8.524;2023-03-03T09:53:14;2.30;97.00
10030;DHT22;5055;52.054;8.524;2023-03-03T09:55:52;2.30;97.00
10030;DHT22;5055;52.054;8.524;2023-03-03T09:58:32;2.40;97.00
10030;DHT22;5055;52.054;8.524;2023-03-03T10:04:14;2.70;97.00
10030;DHT22;5055;52.054;8.524;2023-03-03T10:06:50;2.70;97.00
10030;DHT22;5055;52.054;8.524;2023-03-03T10:09:42;2.80;97.00
10030;DHT22;5055;52.054;8.524;2023-03-03T10:12:21;2.90;97.00
10030;DHT22;5055;52.054;8.524;2023-03-03T10:15:11;3.00;97.00
10030;DHT22;5055;52.054;8.524;2023-03-03T10:17:48;3.10;97.00
10030;DHT22;5055;52.054;8.524;2023-03-03T10:20:44;3.20;97.00
10030;DHT22;5055;52.054;8.524;2023-03-03T10:23:20;3.30;97.00
10030;DHT22;5055;52.054;8.524;2023-03-03T10:25:55;3.40;97.00
10030;DHT22;5055;52.054;8.524;2023-03-03T10:31:40;3.50;97.00
10030;DHT22;5055;52.054;8.524;2023-03-03T10:34:22;3.40;97.00
10030;DHT22;5055;52.054;8.524;2023-03-03T10:36:55;3.50;97.00
10030;DHT22;5055;52.054;8.524;2023-03-03T10:39:41;3.60;97.00
10030;DHT22;5055;52.054;8.524;2023-03-03T10:45:35;3.70;97.00
10030;DHT22;5055;52.054;8.524;2023-03-03T10:48:37;3.80;97.00
10030;DHT22;5055;52.054;8.524;2023-03-03T10:51:18;3.90;97.00
10030;DHT22;5055;52.054;8.524;2023-03-03T10:54:01;3.90;97.00
10030;DHT22;5055;52.054;8.524;2023-03-03T10:56:42;4.00;97.00
10030;DHT22;5055;52.054;8.524;2023-03-03T11:02:29;4.30;97.00
10030;DHT22;5055;52.054;8.524;2023-03-03T11:05:10;4.50;97.00
10030;DHT22;5055;52.054;8.524;2023-03-03T11:07:45;4.60;97.00
10030;DHT22;5055;52.054;8.524;2023-03-03T11:10:27;4.50;97.00
10030;DHT22;5055;52.054;8.524;2023-03-03T11:13:05;4.20;97.00
10030;DHT22;5055;52.054;8.524;2023-03-03T11:15:50;4.30;97.00
10030;DHT22;5055;52.054;8.524;2023-03-03T11:18:33;4.50;97.00
10030;DHT22;5055;52.054;8.524;2023-03-03T11:21:11;4.60;97.00
10030;DHT22;5055;52.054;8.524;2023-03-03T11:23:57;4.70;97.00
10030;DHT22;5055;52.054;8.524;2023-03-03T11:26:43;4.80;97.00
10030;DHT22;5055;52.054;8.524;2023-03-03T11:29:32;4.90;97.00
10030;DHT22;5055;52.054;8.524;2023-03-03T11:32:19;4.90;97.00
10030;DHT22;5055;52.054;8.524;2023-03-03T11:34:58;5.00;97.00
10030;DHT22;5055;52.054;8.524;2023-03-03T11:37:37;5.00;97.00
10030;DHT22;5055;52.054;8.524;2023-03-03T11:40:15;5.00;97.00
10030;DHT22;5055;52.054;8.524;2023-03-03T11:42:52;5.10;97.00
10030;DHT22;5055;52.054;8.524;2023-03-03T11:45:24;5.10;97.00
10030;DHT22;5055;52.054;8.524;2023-03-03T11:47:58;5.10;97.00
10030;DHT22;5055;52.054;8.524;2023-03-03T11:50:34;5.20;97.00
10030;DHT22;5055;52.054;8.524;2023-03-03T11:53:17;5.20;97.00
10030;DHT22;5055;52.054;8.524;2023-03-03T11:55:59;5.10;97.00
10030;DHT22;5055;52.054;8.524;2023-03-03T11:58:35;4.90;97.00
10030;DHT22;5055;52.054;8.524;2023-03-03T12:01:13;4.80;97.00
10030;DHT22;5055;52.054;8.524;2023-03-03T12:03:46;4.90;97.00
10030;DHT22;5055;52.054;8.524;2023-03-03T12:06:26;5.00;97.00
10030;DHT22;5055;52.054;8.524;2023-03-03T12:09:07;5.10;97.00
10030;DHT22;5055;52.054;8.524;2023-03-03T12:11:46;5.20;97.00
10030;DHT22;5055;52.054;8.524;2023-03-03T12:14:30;5.30;97.00
10030;DHT22;5055;52.054;8.524;2023-03-03T12:17:05;5.40;97.00
10030;DHT22;5055;52.054;8.524;2023-03-03T12:19:41;5.40;97.00
10030;DHT22;5055;52.054;8.524;2023-03-03T12:22:26;5.50;97.00
10030;DHT22;5055;52.054;8.524;2023-03-03T12:25:12;5.60;97.00
10030;DHT22;5055;52.054;8.524;2023-03-03T12:27:49;5.50;97.00
10030;DHT22;5055;52.054;8.524;2023-03-03T12:30:28;5.80;97.00
10030;DHT22;5055;52.054;8.524;2023-03-03T12:33:15;5.90;97.00
10030;DHT22;5055;52.054;8.524;2023-03-03T12:35:50;6.10;97.00
10030;DHT22;5055;52.054;8.524;2023-03-03T12:38:32;6.30;97.00
10030;DHT22;5055;52.054;8.524;2023-03-03T12:41:07;6.30;97.00
10030;DHT22;5055;52.054;8.524;2023-03-03T12:43:55;6.40;97.00
10030;DHT22;5055;52.054;8.524;2023-03-03T12:46:34;6.40;97.00
10030;DHT22;5055;52.054;8.524;2023-03-03T12:49:07;6.60;97.00
10030;DHT22;5055;52.054;8.524;2023-03-03T12:51:42;6.70;97.00
10030;DHT22;5055;52.054;8.524;2023-03-03T12:54:33;6.80;97.00
10030;DHT22;5055;52.054;8.524;2023-03-03T12:57:15;6.90;97.00
10030;DHT22;5055;52.054;8.524;2023-03-03T12:59:57;7.00;97.00
10030;DHT22;5055;52.054;8.524;2023-03-03T13:02:46;7.20;97.00
10030;DHT22;5055;52.054;8.524;2023-03-03T13:05:20;7.50;97.00
10030;DHT22;5055;52.054;8.524;2023-03-03T13:08:07;7.70;97.00
10030;DHT22;5055;52.054;8.524;2023-03-03T13:10:44;7.70;97.00
10030;DHT22;5055;52.054;8.524;2023-03-03T13:13:17;8.10;97.00
10030;DHT22;5055;52.054;8.524;2023-03-03T13:15:59;8.70;97.00
10030;DHT22;5055;52.054;8.524;2023-03-03T13:18:49;9.10;97.00
10030;DHT22;5055;52.054;8.524;2023-03-03T13:21:22;9.70;97.00
10030;DHT22;5055;52.054;8.524;2023-03-03T13:23:57;10.30;97.00
10030;DHT22;5055;52.054;8.524;2023-03-03T13:26:32;10.90;97.00
10030;DHT22;5055;52.054;8.524;2023-03-03T13:29:11;11.60;97.00
10030;DHT22;5055;52.054;8.524;2023-03-03T13:31:44;12.50;97.00
10030;DHT22;5055;52.054;8.524;2023-03-03T13:34:24;12.80;97.00
10030;DHT22;5055;52.054;8.524;2023-03-03T13:36:58;12.80;97.00
10030;DHT22;5055;52.054;8.524;2023-03-03T13:39:31;12.30;97.00
10030;DHT22;5055;52.054;8.524;2023-03-03T13:42:05;11.60;97.00
10030;DHT22;5055;52.054;8.524;2023-03-03T13:44:39;10.80;97.00
10030;DHT22;5055;52.054;8.524;2023-03-03T13:47:14;10.40;97.00
10030;DHT22;5055;52.054;8.524;2023-03-03T13:49:59;10.50;97.00
10030;DHT22;5055;52.054;8.524;2023-03-03T13:52:32;10.70;97.00
10030;DHT22;5055;52.054;8.524;2023-03-03T13:55:21;10.60;97.00
10030;DHT22;5055;52.054;8.524;2023-03-03T13:57:59;10.50;97.00
10030;DHT22;5055;52.054;8.524;2023-03-03T14:00:33;10.50;97.00
10030;DHT22;5055;52.054;8.524;2023-03-03T14:06:19;10.30;97.00
10030;DHT22;5055;52.054;8.524;2023-03-03T14:09:06;10.50;97.00
10030;DHT22;5055;52.054;8.524;2023-03-03T14:11:42;10.80;97.00
10030;DHT22;5055;52.054;8.524;2023-03-03T14:14:30;11.10;97.00
10030;DHT22;5055;52.054;8.524;2023-03-03T14:17:02;11.00;97.00
10030;DHT22;5055;52.054;8.524;2023-03-03T14:19:35;11.20;97.00
10030;DHT22;5055;52.054;8.524;2023-03-03T14:22:16;11.60;97.00
10030;DHT22;5055;52.054;8.524;2023-03-03T14:24:59;12.00;97.00
10030;DHT22;5055;52.054;8.524;2023-03-03T14:27:34;12.60;97.00
10030;DHT22;5055;52.054;8.524;2023-03-03T14:30:33;12.90;97.00
10030;DHT22;5055;52.054;8.524;2023-03-03T14:33:28;13.00;97.00
10030;DHT22;5055;52.054;8.524;2023-03-03T14:36:11;13.00;97.00
10030;DHT22;5055;52.054;8.524;2023-03-03T14:38:47;12.70;97.00
10030;DHT22;5055;52.054;8.524;2023-03-03T14:41:20;12.00;97.00
10030;DHT22;5055;52.054;8.524;2023-03-03T14:43:57;11.60;97.00
10030;DHT22;5055;52.054;8.524;2023-03-03T14:46:37;11.40;97.00
10030;DHT22;5055;52.054;8.524;2023-03-03T14:49:14;11.40;97.00
10030;DHT22;5055;52.054;8.524;2023-03-03T14:51:45;11.50;97.00
10030;DHT22;5055;52.054;8.524;2023-03-03T14:54:20;11.30;97.00
10030;DHT22;5055;52.054;8.524;2023-03-03T14:57:01;11.60;97.00
10030;DHT22;5055;52.054;8.524;2023-03-03T14:59:31;11.80;97.00
10030;DHT22;5055;52.054;8.524;2023-03-03T15:02:32;12.20;97.00
10030;DHT22;5055;52.054;8.524;2023-03-03T15:05:17;12.30;97.00
10030;DHT22;5055;52.054;8.524;2023-03-03T15:07:49;12.40;97.00
10030;DHT22;5055;52.054;8.524;2023-03-03T15:10:33;12.40;97.00
10030;DHT22;5055;52.054;8.524;2023-03-03T15:13:33;12.50;97.00
10030;DHT22;5055;52.054;8.524;2023-03-03T15:16:08;12.50;97.00
10030;DHT22;5055;52.054;8.524;2023-03-03T15:19:03;12.80;97.00
10030;DHT22;5055;52.054;8.524;2023-03-03T15:21:40;12.50;97.00
10030;DHT22;5055;52.054;8.524;2023-03-03T15:24:16;12.20;97.00
10030;DHT22;5055;52.054;8.524;2023-03-03T15:26:53;12.00;97.00
10030;DHT22;5055;52.054;8.524;2023-03-03T15:29:25;12.30;97.00
10030;DHT22;5055;52.054;8.524;2023-03-03T15:32:01;12.30;97.00
10030;DHT22;5055;52.054;8.524;2023-03-03T15:34:40;12.50;97.00
10030;DHT22;5055;52.054;8.524;2023-03-03T15:37:26;12.60;97.00
10030;DHT22;5055;52.054;8.524;2023-03-03T15:40:04;12.10;97.00
10030;DHT22;5055;52.054;8.524;2023-03-03T15:42:41;11.90;97.00
10030;DHT22;5055;52.054;8.524;2023-03-03T15:45:18;11.80;97.00
10030;DHT22;5055;52.054;8.524;2023-03-03T15:48:00;11.60;97.00
10030;DHT22;5055;52.054;8.524;2023-03-03T15:50:43;10.90;97.00
10030;DHT22;5055;52.054;8.524;2023-03-03T15:53:37;9.60;97.00
10030;DHT22;5055;52.054;8.524;2023-03-03T15:56:21;8.70;97.00
10030;DHT22;5055;52.054;8.524;2023-03-03T16:02:18;7.70;97.00
10030;DHT22;5055;52.054;8.524;2023-03-03T16:04:53;7.00;97.00
10030;DHT22;5055;52.054;8.524;2023-03-03T16:07:37;6.80;97.00
10030;DHT22;5055;52.054;8.524;2023-03-03T16:10:20;6.50;97.00
10030;DHT22;5055;52.054;8.524;2023-03-03T16:12:56;6.40;97.00
10030;DHT22;5055;52.054;8.524;2023-03-03T16:15:41;6.30;97.00
10030;DHT22;5055;52.054;8.524;2023-03-03T16:18:19;6.30;97.00
10030;DHT22;5055;52.054;8.524;2023-03-03T16:21:02;6.20;97.00
10030;DHT22;5055;52.054;8.524;2023-03-03T16:23:41;6.20;97.00
10030;DHT22;5055;52.054;8.524;2023-03-03T16:26:30;6.20;97.00
10030;DHT22;5055;52.054;8.524;2023-03-03T16:29:15;6.30;97.00
10030;DHT22;5055;52.054;8.524;2023-03-03T16:31:48;6.50;97.00
10030;DHT22;5055;52.054;8.524;2023-03-03T16:34:25;6.60;97.00
10030;DHT22;5055;52.054;8.524;2023-03-03T16:37:06;6.60;97.00
10030;DHT22;5055;52.054;8.524;2023-03-03T16:39:52;6.50;97.00
10030;DHT22;5055;52.054;8.524;2023-03-03T16:42:27;6.30;97.00
10030;DHT22;5055;52.054;8.524;2023-03-03T16:45:05;6.00;97.00
10030;DHT22;5055;52.054;8.524;2023-03-03T16:47:47;5.80;97.00
10030;DHT22;5055;52.054;8.524;2023-03-03T16:50:25;5.70;97.00
10030;DHT22;5055;52.054;8.524;2023-03-03T16:53:02;5.50;97.00
10030;DHT22;5055;52.054;8.524;2023-03-03T16:55:46;5.40;97.00
10030;DHT22;5055;52.054;8.524;2023-03-03T16:58:25;5.10;97.00
10030;DHT22;5055;52.054;8.524;2023-03-03T17:01:03;4.90;97.00
10030;DHT22;5055;52.054;8.524;2023-03-03T17:03:44;4.80;97.00
10030;DHT22;5055;52.054;8.524;2023-03-03T17:06:22;4.60;97.00
10030;DHT22;5055;52.054;8.524;2023-03-03T17:09:18;4.50;97.00
10030;DHT22;5055;52.054;8.524;2023-03-03T17:12:12;4.30;97.00